sensor_id;sensor_type;location;lat;lon;timestamp;P1;durP1;ratioP1;P2;durP2;ratioP2
7173;SDS011;3628;48.654;8.932;2022-07-23T00:00:16;3.25;;;2.75;;
7173;SDS011;3628;48.654;8.932;2022-07-23T00:02:42;2.55;;;2.28;;
7173;SDS011;3628;48.654;8.932;2022-07-23T00:05:07;3.17;;;2.60;;
7173;SDS011;3628;48.654;8.932;2022-07-23T00:07:33;2.88;;;2.55;;
7173;SDS011;3628;48.654;8.932;2022-07-23T00:09:59;3.08;;;2.47;;
7173;SDS011;3628;48.654;8.932;2022-07-23T00:12:25;2.85;;;2.63;;
7173;SDS011;3628;48.654;8.932;2022-07-23T00:14:51;4.82;;;2.65;;
7173;SDS011;3628;48.654;8.932;2022-07-23T00:17:16;3.20;;;2.67;;
7173;SDS011;3628;48.654;8.932;2022-07-23T00:19:42;2.63;;;2.45;;
7173;SDS011;3628;48.654;8.932;2022-07-23T00:22:07;2.60;;;2.40;;
7173;SDS011;3628;48.654;8.932;2022-07-23T00:24:33;4.53;;;2.88;;
7173;SDS011;3628;48.654;8.932;2022-07-23T00:26:58;3.80;;;2.60;;
7173;SDS011;3628;48.654;8.932;2022-07-23T00:29:24;2.88;;;2.67;;
7173;SDS011;3628;48.654;8.932;2022-07-23T00:31:50;2.85;;;2.30;;
7173;SDS011;3628;48.654;8.932;2022-07-23T00:34:15;2.40;;;2.20;;
7173;SDS011;3628;48.654;8.932;2022-07-23T00:36:41;2.60;;;2.40;;
7173;SDS011;3628;48.654;8.932;2022-07-23T00:39:06;3.33;;;2.40;;
7173;SDS011;3628;48.654;8.932;2022-07-23T00:41:32;4.13;;;2.53;;
7173;SDS011;3628;48.654;8.932;2022-07-23T00:44:13;3.63;;;2.42;;
7173;SDS011;3628;48.654;8.932;2022-07-23T00:46:47;3.00;;;2.60;;
7173;SDS011;3628;48.654;8.932;2022-07-23T00:49:19;2.70;;;2.50;;
7173;SDS011;3628;48.654;8.932;2022-07-23T00:51:46;2.58;;;2.38;;
7173;SDS011;3628;48.654;8.932;2022-07-23T00:54:12;2.30;;;2.10;;
7173;SDS011;3628;48.654;8.932;2022-07-23T00:56:38;2.40;;;2.20;;
7173;SDS011;3628;48.654;8.932;2022-07-23T00:59:05;2.88;;;2.58;;
7173;SDS011;3628;48.654;8.932;2022-07-23T01:01:31;4.82;;;2.30;;
7173;SDS011;3628;48.654;8.932;2022-07-23T01:03:57;5.05;;;2.50;;
7173;SDS011;3628;48.654;8.932;2022-07-23T01:06:22;2.65;;;2.45;;
7173;SDS011;3628;48.654;8.932;2022-07-23T01:08:48;2.25;;;2.05;;
7173;SDS011;3628;48.654;8.932;2022-07-23T01:11:13;2.60;;;2.40;;
7173;SDS011;3628;48.654;8.932;2022-07-23T01:13:42;4.43;;;2.50;;
7173;SDS011;3628;48.654;8.932;2022-07-23T01:16:08;2.50;;;2.30;;
7173;SDS011;3628;48.654;8.932;2022-07-23T01:18:34;3.08;;;2.55;;
7173;SDS011;3628;48.654;8.932;2022-07-23T01:20:59;2.70;;;2.50;;
7173;SDS011;3628;48.654;8.932;2022-07-23T01:23:25;4.97;;;2.22;;
7173;SDS011;3628;48.654;8.932;2022-07-23T01:25:54;4.50;;;2.10;;
7173;SDS011;3628;48.654;8.932;2022-07-23T01:28:20;2.60;;;2.40;;
7173;SDS011;3628;48.654;8.932;2022-07-23T01:30:46;2.58;;;2.17;;
7173;SDS011;3628;48.654;8.932;2022-07-23T01:33:13;3.08;;;2.60;;
7173;SDS011;3628;48.654;8.932;2022-07-23T01:35:39;2.42;;;2.22;;
7173;SDS011;3628;48.654;8.932;2022-07-23T01:38:04;2.60;;;2.40;;
7173;SDS011;3628;48.654;8.932;2022-07-23T01:40:30;4.22;;;2.42;;
7173;SDS011;3628;48.654;8.932;2022-07-23T01:42:56;2.50;;;2.25;;
7173;SDS011;3628;48.654;8.932;2022-07-23T01:45:22;2.67;;;2.38;;
7173;SDS011;3628;48.654;8.932;2022-07-23T01:47:48;3.85;;;2.30;;
7173;SDS011;3628;48.654;8.932;2022-07-23T01:50:14;3.05;;;2.30;;
7173;SDS011;3628;48.654;8.932;2022-07-23T01:52:39;2.72;;;2.30;;
7173;SDS011;3628;48.654;8.932;2022-07-23T01:55:05;4.18;;;2.60;;
7173;SDS011;3628;48.654;8.932;2022-07-23T01:57:32;2.65;;;2.35;;
7173;SDS011;3628;48.654;8.932;2022-07-23T01:59:57;2.65;;;2.45;;
7173;SDS011;3628;48.654;8.932;2022-07-23T02:02:23;2.47;;;2.28;;
7173;SDS011;3628;48.654;8.932;2022-07-23T02:04:49;3.08;;;2.42;;
7173;SDS011;3628;48.654;8.932;2022-07-23T02:07:14;2.42;;;2.25;;
7173;SDS011;3628;48.654;8.932;2022-07-23T02:09:40;2.95;;;2.30;;
7173;SDS011;3628;48.654;8.932;2022-07-23T02:12:06;4.13;;;2.60;;
7173;SDS011;3628;48.654;8.932;2022-07-23T02:14:31;2.92;;;2.58;;
7173;SDS011;3628;48.654;8.932;2022-07-23T02:16:58;2.60;;;2.35;;
7173;SDS011;3628;48.654;8.932;2022-07-23T02:19:24;2.42;;;2.22;;
7173;SDS011;3628;48.654;8.932;2022-07-23T02:21:49;4.32;;;2.60;;
7173;SDS011;3628;48.654;8.932;2022-07-23T02:24:16;3.10;;;2.70;;
7173;SDS011;3628;48.654;8.932;2022-07-23T02:26:41;4.07;;;2.70;;
7173;SDS011;3628;48.654;8.932;2022-07-23T02:29:07;3.20;;;2.50;;
7173;SDS011;3628;48.654;8.932;2022-07-23T02:31:33;2.50;;;2.30;;
7173;SDS011;3628;48.654;8.932;2022-07-23T02:33:59;2.38;;;2.15;;
7173;SDS011;3628;48.654;8.932;2022-07-23T02:36:25;3.00;;;2.70;;
7173;SDS011;3628;48.654;8.932;2022-07-23T02:38:51;2.75;;;2.55;;
7173;SDS011;3628;48.654;8.932;2022-07-23T02:41:17;3.58;;;2.45;;
7173;SDS011;3628;48.654;8.932;2022-07-23T02:43:42;2.97;;;2.58;;
7173;SDS011;3628;48.654;8.932;2022-07-23T02:46:08;2.72;;;2.53;;
7173;SDS011;3628;48.654;8.932;2022-07-23T02:48:34;2.80;;;2.60;;
7173;SDS011;3628;48.654;8.932;2022-07-23T02:50:59;3.60;;;2.78;;
7173;SDS011;3628;48.654;8.932;2022-07-23T02:53:25;2.80;;;2.50;;
7173;SDS011;3628;48.654;8.932;2022-07-23T02:55:51;2.95;;;2.42;;
7173;SDS011;3628;48.654;8.932;2022-07-23T02:58:16;3.63;;;2.60;;
7173;SDS011;3628;48.654;8.932;2022-07-23T03:00:42;3.55;;;2.47;;
7173;SDS011;3628;48.654;8.932;2022-07-23T03:03:08;2.60;;;2.40;;
7173;SDS011;3628;48.654;8.932;2022-07-23T03:05:33;3.78;;;2.60;;
7173;SDS011;3628;48.654;8.932;2022-07-23T03:07:59;3.80;;;2.90;;
7173;SDS011;3628;48.654;8.932;2022-07-23T03:10:25;6.07;;;2.72;;
7173;SDS011;3628;48.654;8.932;2022-07-23T03:12:51;5.53;;;2.65;;
7173;SDS011;3628;48.654;8.932;2022-07-23T03:15:17;3.17;;;2.40;;
7173;SDS011;3628;48.654;8.932;2022-07-23T03:17:42;2.97;;;2.70;;
7173;SDS011;3628;48.654;8.932;2022-07-23T03:20:08;3.47;;;2.47;;
7173;SDS011;3628;48.654;8.932;2022-07-23T03:22:34;2.42;;;2.28;;
7173;SDS011;3628;48.654;8.932;2022-07-23T03:25:00;2.38;;;2.17;;
7173;SDS011;3628;48.654;8.932;2022-07-23T03:27:26;3.30;;;2.67;;
7173;SDS011;3628;48.654;8.932;2022-07-23T03:29:54;2.78;;;2.58;;
7173;SDS011;3628;48.654;8.932;2022-07-23T03:32:21;3.17;;;2.45;;
7173;SDS011;3628;48.654;8.932;2022-07-23T03:34:47;5.28;;;2.70;;
7173;SDS011;3628;48.654;8.932;2022-07-23T03:37:13;2.70;;;2.50;;
7173;SDS011;3628;48.654;8.932;2022-07-23T03:39:40;2.75;;;2.53;;
7173;SDS011;3628;48.654;8.932;2022-07-23T03:42:05;2.72;;;2.53;;
7173;SDS011;3628;48.654;8.932;2022-07-23T03:44:31;2.95;;;2.40;;
7173;SDS011;3628;48.654;8.932;2022-07-23T03:46:57;3.13;;;2.58;;
7173;SDS011;3628;48.654;8.932;2022-07-23T03:49:23;2.97;;;2.40;;
7173;SDS011;3628;48.654;8.932;2022-07-23T03:51:48;2.78;;;2.58;;
7173;SDS011;3628;48.654;8.932;2022-07-23T03:54:14;2.83;;;2.63;;
7173;SDS011;3628;48.654;8.932;2022-07-23T03:56:40;3.58;;;2.70;;
7173;SDS011;3628;48.654;8.932;2022-07-23T03:59:05;2.97;;;2.50;;
7173;SDS011;3628;48.654;8.932;2022-07-23T04:01:31;2.65;;;2.42;;
7173;SDS011;3628;48.654;8.932;2022-07-23T04:03:57;2.97;;;2.78;;
7173;SDS011;3628;48.654;8.932;2022-07-23T04:06:23;2.70;;;2.50;;
7173;SDS011;3628;48.654;8.932;2022-07-23T04:08:48;4.13;;;2.80;;
7173;SDS011;3628;48.654;8.932;2022-07-23T04:11:14;3.38;;;2.85;;
7173;SDS011;3628;48.654;8.932;2022-07-23T04:13:39;3.30;;;2.38;;
7173;SDS011;3628;48.654;8.932;2022-07-23T04:16:05;3.40;;;2.47;;
7173;SDS011;3628;48.654;8.932;2022-07-23T04:18:31;2.97;;;2.78;;
7173;SDS011;3628;48.654;8.932;2022-07-23T04:20:57;3.08;;;2.88;;
7173;SDS011;3628;48.654;8.932;2022-07-23T04:23:23;3.90;;;2.75;;
7173;SDS011;3628;48.654;8.932;2022-07-23T04:25:48;3.30;;;3.00;;
7173;SDS011;3628;48.654;8.932;2022-07-23T04:28:14;3.83;;;2.85;;
7173;SDS011;3628;48.654;8.932;2022-07-23T04:30:39;3.63;;;2.90;;
7173;SDS011;3628;48.654;8.932;2022-07-23T04:33:05;3.30;;;3.00;;
7173;SDS011;3628;48.654;8.932;2022-07-23T04:35:31;3.63;;;2.90;;
7173;SDS011;3628;48.654;8.932;2022-07-23T04:37:58;3.30;;;3.00;;
7173;SDS011;3628;48.654;8.932;2022-07-23T04:40:24;3.15;;;2.83;;
7173;SDS011;3628;48.654;8.932;2022-07-23T04:42:50;3.50;;;3.20;;
7173;SDS011;3628;48.654;8.932;2022-07-23T04:45:16;3.85;;;3.00;;
7173;SDS011;3628;48.654;8.932;2022-07-23T04:47:41;4.85;;;3.15;;
7173;SDS011;3628;48.654;8.932;2022-07-23T04:50:07;3.28;;;2.90;;
7173;SDS011;3628;48.654;8.932;2022-07-23T04:52:33;3.45;;;3.15;;
7173;SDS011;3628;48.654;8.932;2022-07-23T04:54:58;6.72;;;3.10;;
7173;SDS011;3628;48.654;8.932;2022-07-23T04:57:24;3.45;;;3.03;;
7173;SDS011;3628;48.654;8.932;2022-07-23T04:59:49;3.60;;;3.30;;
7173;SDS011;3628;48.654;8.932;2022-07-23T05:02:15;3.53;;;3.00;;
7173;SDS011;3628;48.654;8.932;2022-07-23T05:04:41;3.35;;;3.05;;
7173;SDS011;3628;48.654;8.932;2022-07-23T05:07:06;5.63;;;3.67;;
7173;SDS011;3628;48.654;8.932;2022-07-23T05:09:32;3.35;;;3.05;;
7173;SDS011;3628;48.654;8.932;2022-07-23T05:11:57;5.50;;;3.28;;
7173;SDS011;3628;48.654;8.932;2022-07-23T05:14:23;3.17;;;2.88;;
7173;SDS011;3628;48.654;8.932;2022-07-23T05:16:48;3.03;;;2.83;;
7173;SDS011;3628;48.654;8.932;2022-07-23T05:19:14;2.97;;;2.78;;
7173;SDS011;3628;48.654;8.932;2022-07-23T05:21:39;3.65;;;3.35;;
7173;SDS011;3628;48.654;8.932;2022-07-23T05:24:05;3.20;;;2.90;;
7173;SDS011;3628;48.654;8.932;2022-07-23T05:26:31;2.97;;;2.63;;
7173;SDS011;3628;48.654;8.932;2022-07-23T05:28:57;3.75;;;2.75;;
7173;SDS011;3628;48.654;8.932;2022-07-23T05:31:22;3.38;;;3.08;;
7173;SDS011;3628;48.654;8.932;2022-07-23T05:33:48;3.15;;;2.85;;
7173;SDS011;3628;48.654;8.932;2022-07-23T05:36:13;5.72;;;3.10;;
7173;SDS011;3628;48.654;8.932;2022-07-23T05:38:39;4.07;;;3.28;;
7173;SDS011;3628;48.654;8.932;2022-07-23T05:41:05;3.10;;;2.80;;
7173;SDS011;3628;48.654;8.932;2022-07-23T05:43:30;6.45;;;3.20;;
7173;SDS011;3628;48.654;8.932;2022-07-23T05:45:56;4.03;;;2.95;;
7173;SDS011;3628;48.654;8.932;2022-07-23T05:48:21;4.13;;;3.22;;
7173;SDS011;3628;48.654;8.932;2022-07-23T05:50:47;3.13;;;2.92;;
7173;SDS011;3628;48.654;8.932;2022-07-23T05:53:13;3.47;;;3.17;;
7173;SDS011;3628;48.654;8.932;2022-07-23T05:55:39;3.47;;;3.17;;
7173;SDS011;3628;48.654;8.932;2022-07-23T05:58:04;3.55;;;3.25;;
7173;SDS011;3628;48.654;8.932;2022-07-23T06:00:30;3.38;;;3.08;;
7173;SDS011;3628;48.654;8.932;2022-07-23T06:02:56;3.67;;;3.38;;
7173;SDS011;3628;48.654;8.932;2022-07-23T06:05:22;3.92;;;3.63;;
7173;SDS011;3628;48.654;8.932;2022-07-23T06:07:48;5.40;;;3.55;;
7173;SDS011;3628;48.654;8.932;2022-07-23T06:10:14;3.65;;;3.33;;
7173;SDS011;3628;48.654;8.932;2022-07-23T06:12:40;4.75;;;3.65;;
7173;SDS011;3628;48.654;8.932;2022-07-23T06:15:06;6.22;;;3.80;;
7173;SDS011;3628;48.654;8.932;2022-07-23T06:17:32;4.03;;;3.72;;
7173;SDS011;3628;48.654;8.932;2022-07-23T06:19:58;4.38;;;3.70;;
7173;SDS011;3628;48.654;8.932;2022-07-23T06:22:23;3.90;;;3.47;;
7173;SDS011;3628;48.654;8.932;2022-07-23T06:24:49;4.43;;;3.78;;
7173;SDS011;3628;48.654;8.932;2022-07-23T06:27:15;3.78;;;3.47;;
7173;SDS011;3628;48.654;8.932;2022-07-23T06:29:41;3.85;;;3.55;;
7173;SDS011;3628;48.654;8.932;2022-07-23T06:32:07;4.97;;;3.78;;
7173;SDS011;3628;48.654;8.932;2022-07-23T06:34:33;3.85;;;3.55;;
7173;SDS011;3628;48.654;8.932;2022-07-23T06:36:59;3.78;;;3.35;;
7173;SDS011;3628;48.654;8.932;2022-07-23T06:39:25;4.20;;;3.80;;
7173;SDS011;3628;48.654;8.932;2022-07-23T06:41:51;5.10;;;3.88;;
7173;SDS011;3628;48.654;8.932;2022-07-23T06:44:17;6.10;;;3.58;;
7173;SDS011;3628;48.654;8.932;2022-07-23T06:46:42;3.80;;;3.40;;
7173;SDS011;3628;48.654;8.932;2022-07-23T06:49:08;9.07;;;4.30;;
7173;SDS011;3628;48.654;8.932;2022-07-23T06:51:34;3.88;;;3.38;;
7173;SDS011;3628;48.654;8.932;2022-07-23T06:54:00;3.92;;;3.28;;
7173;SDS011;3628;48.654;8.932;2022-07-23T06:56:26;3.47;;;3.17;;
7173;SDS011;3628;48.654;8.932;2022-07-23T06:58:51;3.67;;;3.10;;
7173;SDS011;3628;48.654;8.932;2022-07-23T07:01:17;3.83;;;3.40;;
7173;SDS011;3628;48.654;8.932;2022-07-23T07:03:43;4.90;;;3.53;;
7173;SDS011;3628;48.654;8.932;2022-07-23T07:06:08;5.63;;;3.25;;
7173;SDS011;3628;48.654;8.932;2022-07-23T07:08:34;3.47;;;3.08;;
7173;SDS011;3628;48.654;8.932;2022-07-23T07:10:59;3.65;;;3.35;;
7173;SDS011;3628;48.654;8.932;2022-07-23T07:13:25;3.67;;;3.38;;
7173;SDS011;3628;48.654;8.932;2022-07-23T07:15:51;3.10;;;2.90;;
7173;SDS011;3628;48.654;8.932;2022-07-23T07:18:16;4.70;;;3.28;;
7173;SDS011;3628;48.654;8.932;2022-07-23T07:20:42;3.63;;;3.33;;
7173;SDS011;3628;48.654;8.932;2022-07-23T07:23:07;3.30;;;3.00;;
7173;SDS011;3628;48.654;8.932;2022-07-23T07:25:33;3.97;;;3.25;;
7173;SDS011;3628;48.654;8.932;2022-07-23T07:27:59;3.47;;;3.05;;
7173;SDS011;3628;48.654;8.932;2022-07-23T07:30:24;3.25;;;2.72;;
7173;SDS011;3628;48.654;8.932;2022-07-23T07:32:50;3.42;;;3.13;;
7173;SDS011;3628;48.654;8.932;2022-07-23T07:35:15;3.25;;;3.00;;
7173;SDS011;3628;48.654;8.932;2022-07-23T07:37:41;3.20;;;2.67;;
7173;SDS011;3628;48.654;8.932;2022-07-23T07:40:07;3.22;;;2.92;;
7173;SDS011;3628;48.654;8.932;2022-07-23T07:42:33;3.50;;;3.20;;
7173;SDS011;3628;48.654;8.932;2022-07-23T07:44:59;4.97;;;3.50;;
7173;SDS011;3628;48.654;8.932;2022-07-23T07:47:25;3.45;;;2.90;;
7173;SDS011;3628;48.654;8.932;2022-07-23T07:49:50;3.05;;;2.85;;
7173;SDS011;3628;48.654;8.932;2022-07-23T07:52:16;3.85;;;3.17;;
7173;SDS011;3628;48.654;8.932;2022-07-23T07:54:42;3.30;;;2.97;;
7173;SDS011;3628;48.654;8.932;2022-07-23T07:57:07;3.63;;;2.88;;
7173;SDS011;3628;48.654;8.932;2022-07-23T07:59:33;4.18;;;2.88;;
7173;SDS011;3628;48.654;8.932;2022-07-23T08:01:59;3.38;;;3.08;;
7173;SDS011;3628;48.654;8.932;2022-07-23T08:04:24;3.28;;;2.60;;
7173;SDS011;3628;48.654;8.932;2022-07-23T08:06:50;3.00;;;2.70;;
7173;SDS011;3628;48.654;8.932;2022-07-23T08:09:15;3.35;;;3.00;;
7173;SDS011;3628;48.654;8.932;2022-07-23T08:11:41;3.38;;;3.08;;
7173;SDS011;3628;48.654;8.932;2022-07-23T08:14:07;3.42;;;3.05;;
7173;SDS011;3628;48.654;8.932;2022-07-23T08:16:33;3.08;;;2.53;;
7173;SDS011;3628;48.654;8.932;2022-07-23T08:18:59;3.72;;;2.78;;
7173;SDS011;3628;48.654;8.932;2022-07-23T08:21:25;5.20;;;2.78;;
7173;SDS011;3628;48.654;8.932;2022-07-23T08:23:50;3.40;;;2.85;;
7173;SDS011;3628;48.654;8.932;2022-07-23T08:26:16;2.50;;;2.30;;
7173;SDS011;3628;48.654;8.932;2022-07-23T08:28:42;3.38;;;2.72;;
7173;SDS011;3628;48.654;8.932;2022-07-23T08:31:07;3.00;;;2.80;;
7173;SDS011;3628;48.654;8.932;2022-07-23T08:33:33;4.20;;;2.58;;
7173;SDS011;3628;48.654;8.932;2022-07-23T08:35:59;2.88;;;2.50;;
7173;SDS011;3628;48.654;8.932;2022-07-23T08:38:24;2.95;;;2.75;;
7173;SDS011;3628;48.654;8.932;2022-07-23T08:40:51;2.90;;;2.70;;
7173;SDS011;3628;48.654;8.932;2022-07-23T08:43:21;2.92;;;2.72;;
7173;SDS011;3628;48.654;8.932;2022-07-23T08:45:50;2.75;;;2.55;;
7173;SDS011;3628;48.654;8.932;2022-07-23T08:48:19;3.28;;;2.80;;
7173;SDS011;3628;48.654;8.932;2022-07-23T08:50:48;2.92;;;2.72;;
7173;SDS011;3628;48.654;8.932;2022-07-23T08:53:15;3.55;;;2.60;;
7173;SDS011;3628;48.654;8.932;2022-07-23T08:55:51;3.00;;;2.70;;
7173;SDS011;3628;48.654;8.932;2022-07-23T08:58:21;3.00;;;2.80;;
7173;SDS011;3628;48.654;8.932;2022-07-23T09:00:49;3.30;;;2.90;;
7173;SDS011;3628;48.654;8.932;2022-07-23T09:03:15;3.08;;;2.78;;
7173;SDS011;3628;48.654;8.932;2022-07-23T09:05:46;3.15;;;2.80;;
7173;SDS011;3628;48.654;8.932;2022-07-23T09:08:13;4.00;;;2.90;;
7173;SDS011;3628;48.654;8.932;2022-07-23T09:15:57;3.13;;;2.83;;
7173;SDS011;3628;48.654;8.932;2022-07-23T09:18:28;3.53;;;3.17;;
7173;SDS011;3628;48.654;8.932;2022-07-23T09:21:08;3.03;;;2.83;;
7173;SDS011;3628;48.654;8.932;2022-07-23T09:23:42;7.03;;;2.85;;
7173;SDS011;3628;48.654;8.932;2022-07-23T09:26:20;3.45;;;3.15;;
7173;SDS011;3628;48.654;8.932;2022-07-23T09:28:50;3.17;;;2.83;;
7173;SDS011;3628;48.654;8.932;2022-07-23T09:31:27;5.00;;;2.88;;
7173;SDS011;3628;48.654;8.932;2022-07-23T09:34:08;3.17;;;2.88;;
7173;SDS011;3628;48.654;8.932;2022-07-23T09:36:35;3.22;;;3.03;;
7173;SDS011;3628;48.654;8.932;2022-07-23T09:39:01;4.95;;;3.15;;
7173;SDS011;3628;48.654;8.932;2022-07-23T09:41:33;3.53;;;3.22;;
7173;SDS011;3628;48.654;8.932;2022-07-23T09:44:24;3.30;;;3.10;;
7173;SDS011;3628;48.654;8.932;2022-07-23T09:46:50;4.47;;;3.58;;
7173;SDS011;3628;48.654;8.932;2022-07-23T09:49:23;5.10;;;3.13;;
7173;SDS011;3628;48.654;8.932;2022-07-23T09:51:55;3.70;;;3.22;;
7173;SDS011;3628;48.654;8.932;2022-07-23T09:57:14;2.97;;;2.78;;
7173;SDS011;3628;48.654;8.932;2022-07-23T09:59:40;3.83;;;3.50;;
7173;SDS011;3628;48.654;8.932;2022-07-23T10:02:08;4.05;;;3.20;;
7173;SDS011;3628;48.654;8.932;2022-07-23T10:04:35;3.45;;;3.15;;
7173;SDS011;3628;48.654;8.932;2022-07-23T10:07:03;3.10;;;2.90;;
7173;SDS011;3628;48.654;8.932;2022-07-23T10:09:31;3.42;;;3.15;;
7173;SDS011;3628;48.654;8.932;2022-07-23T10:11:59;3.17;;;2.88;;
7173;SDS011;3628;48.654;8.932;2022-07-23T10:14:31;3.28;;;3.08;;
7173;SDS011;3628;48.654;8.932;2022-07-23T10:16:58;4.13;;;3.30;;
7173;SDS011;3628;48.654;8.932;2022-07-23T10:19:26;3.78;;;3.00;;
7173;SDS011;3628;48.654;8.932;2022-07-23T10:21:53;3.55;;;3.15;;
7173;SDS011;3628;48.654;8.932;2022-07-23T10:24:30;4.38;;;3.17;;
7173;SDS011;3628;48.654;8.932;2022-07-23T10:27:31;3.22;;;2.90;;
7173;SDS011;3628;48.654;8.932;2022-07-23T10:30:30;3.30;;;3.10;;
7173;SDS011;3628;48.654;8.932;2022-07-23T10:36:22;4.00;;;2.83;;
7173;SDS011;3628;48.654;8.932;2022-07-23T10:41:42;3.00;;;2.78;;
7173;SDS011;3628;48.654;8.932;2022-07-23T10:44:12;3.30;;;3.00;;
7173;SDS011;3628;48.654;8.932;2022-07-23T10:46:53;2.90;;;2.70;;
7173;SDS011;3628;48.654;8.932;2022-07-23T10:49:35;2.97;;;2.53;;
7173;SDS011;3628;48.654;8.932;2022-07-23T10:54:53;2.78;;;2.58;;
7173;SDS011;3628;48.654;8.932;2022-07-23T10:57:49;2.65;;;2.55;;
7173;SDS011;3628;48.654;8.932;2022-07-23T11:00:23;3.15;;;2.80;;
7173;SDS011;3628;48.654;8.932;2022-07-23T11:02:51;2.95;;;2.70;;
7173;SDS011;3628;48.654;8.932;2022-07-23T11:05:19;3.13;;;2.83;;
7173;SDS011;3628;48.654;8.932;2022-07-23T11:10:35;2.95;;;2.75;;
7173;SDS011;3628;48.654;8.932;2022-07-23T11:31:58;3.00;;;2.80;;
7173;SDS011;3628;48.654;8.932;2022-07-23T11:37:06;3.90;;;3.05;;
7173;SDS011;3628;48.654;8.932;2022-07-23T11:39:33;3.40;;;3.10;;
7173;SDS011;3628;48.654;8.932;2022-07-23T11:42:00;3.50;;;2.88;;
7173;SDS011;3628;48.654;8.932;2022-07-23T11:44:33;3.45;;;3.15;;
7173;SDS011;3628;48.654;8.932;2022-07-23T11:47:01;3.63;;;3.03;;
7173;SDS011;3628;48.654;8.932;2022-07-23T11:49:28;3.42;;;3.08;;
7173;SDS011;3628;48.654;8.932;2022-07-23T11:52:07;3.22;;;2.92;;
7173;SDS011;3628;48.654;8.932;2022-07-23T11:54:35;3.70;;;3.05;;
7173;SDS011;3628;48.654;8.932;2022-07-23T11:57:11;3.13;;;2.83;;
7173;SDS011;3628;48.654;8.932;2022-07-23T11:59:37;3.30;;;3.00;;
7173;SDS011;3628;48.654;8.932;2022-07-23T12:02:04;3.00;;;2.80;;
7173;SDS011;3628;48.654;8.932;2022-07-23T12:04:47;3.45;;;2.95;;
7173;SDS011;3628;48.654;8.932;2022-07-23T12:09:50;3.10;;;2.90;;
7173;SDS011;3628;48.654;8.932;2022-07-23T12:12:15;3.40;;;3.08;;
7173;SDS011;3628;48.654;8.932;2022-07-23T12:14:54;3.35;;;3.10;;
7173;SDS011;3628;48.654;8.932;2022-07-23T12:17:24;3.42;;;3.13;;
7173;SDS011;3628;48.654;8.932;2022-07-23T12:19:57;4.88;;;2.90;;
7173;SDS011;3628;48.654;8.932;2022-07-23T12:22:24;4.90;;;3.75;;
7173;SDS011;3628;48.654;8.932;2022-07-23T12:24:54;3.25;;;2.95;;
7173;SDS011;3628;48.654;8.932;2022-07-23T12:27:24;3.75;;;3.45;;
7173;SDS011;3628;48.654;8.932;2022-07-23T12:29:50;3.63;;;3.28;;
7173;SDS011;3628;48.654;8.932;2022-07-23T12:32:20;3.20;;;2.90;;
7173;SDS011;3628;48.654;8.932;2022-07-23T12:34:48;3.63;;;3.20;;
7173;SDS011;3628;48.654;8.932;2022-07-23T12:37:32;3.47;;;3.00;;
7173;SDS011;3628;48.654;8.932;2022-07-23T12:40:18;3.70;;;3.40;;
7173;SDS011;3628;48.654;8.932;2022-07-23T12:42:49;3.70;;;3.30;;
7173;SDS011;3628;48.654;8.932;2022-07-23T12:45:23;3.00;;;2.80;;
7173;SDS011;3628;48.654;8.932;2022-07-23T12:50:33;3.40;;;3.00;;
7173;SDS011;3628;48.654;8.932;2022-07-23T12:53:14;3.58;;;3.28;;
7173;SDS011;3628;48.654;8.932;2022-07-23T12:55:42;3.08;;;2.88;;
7173;SDS011;3628;48.654;8.932;2022-07-23T12:58:10;3.10;;;2.90;;
7173;SDS011;3628;48.654;8.932;2022-07-23T13:03:29;3.47;;;3.28;;
7173;SDS011;3628;48.654;8.932;2022-07-23T13:05:58;4.60;;;3.40;;
7173;SDS011;3628;48.654;8.932;2022-07-23T13:08:25;3.20;;;2.90;;
7173;SDS011;3628;48.654;8.932;2022-07-23T13:10:52;4.05;;;3.20;;
7173;SDS011;3628;48.654;8.932;2022-07-23T13:13:22;3.30;;;3.10;;
7173;SDS011;3628;48.654;8.932;2022-07-23T13:15:50;3.38;;;3.17;;
7173;SDS011;3628;48.654;8.932;2022-07-23T13:18:17;3.40;;;3.10;;
7173;SDS011;3628;48.654;8.932;2022-07-23T13:20:46;4.22;;;3.63;;
7173;SDS011;3628;48.654;8.932;2022-07-23T13:23:13;3.60;;;3.30;;
7173;SDS011;3628;48.654;8.932;2022-07-23T13:25:40;4.13;;;3.35;;
7173;SDS011;3628;48.654;8.932;2022-07-23T13:28:06;3.80;;;3.50;;
7173;SDS011;3628;48.654;8.932;2022-07-23T13:30:31;4.88;;;3.78;;
7173;SDS011;3628;48.654;8.932;2022-07-23T13:32:57;3.45;;;3.15;;
7173;SDS011;3628;48.654;8.932;2022-07-23T13:35:23;3.83;;;3.53;;
7173;SDS011;3628;48.654;8.932;2022-07-23T13:37:49;3.47;;;3.28;;
7173;SDS011;3628;48.654;8.932;2022-07-23T13:40:15;3.50;;;3.20;;
7173;SDS011;3628;48.654;8.932;2022-07-23T13:42:40;3.80;;;3.50;;
7173;SDS011;3628;48.654;8.932;2022-07-23T13:45:06;3.75;;;3.17;;
7173;SDS011;3628;48.654;8.932;2022-07-23T13:47:32;5.60;;;3.65;;
7173;SDS011;3628;48.654;8.932;2022-07-23T13:49:58;4.57;;;3.42;;
7173;SDS011;3628;48.654;8.932;2022-07-23T13:52:24;3.40;;;3.13;;
7173;SDS011;3628;48.654;8.932;2022-07-23T13:54:50;3.67;;;3.38;;
7173;SDS011;3628;48.654;8.932;2022-07-23T13:57:16;3.33;;;3.08;;
7173;SDS011;3628;48.654;8.932;2022-07-23T13:59:41;4.05;;;3.13;;
7173;SDS011;3628;48.654;8.932;2022-07-23T14:02:07;5.75;;;3.25;;
7173;SDS011;3628;48.654;8.932;2022-07-23T14:04:33;3.60;;;3.22;;
7173;SDS011;3628;48.654;8.932;2022-07-23T14:06:59;4.60;;;3.63;;
7173;SDS011;3628;48.654;8.932;2022-07-23T14:09:25;4.13;;;3.58;;
7173;SDS011;3628;48.654;8.932;2022-07-23T14:11:51;3.50;;;3.20;;
7173;SDS011;3628;48.654;8.932;2022-07-23T14:14:17;4.97;;;3.55;;
7173;SDS011;3628;48.654;8.932;2022-07-23T14:16:43;4.40;;;3.35;;
7173;SDS011;3628;48.654;8.932;2022-07-23T14:19:09;5.35;;;3.47;;
7173;SDS011;3628;48.654;8.932;2022-07-23T14:21:35;3.80;;;3.40;;
7173;SDS011;3628;48.654;8.932;2022-07-23T14:24:01;3.30;;;3.00;;
7173;SDS011;3628;48.654;8.932;2022-07-23T14:26:27;3.28;;;2.97;;
7173;SDS011;3628;48.654;8.932;2022-07-23T14:28:52;3.38;;;3.10;;
7173;SDS011;3628;48.654;8.932;2022-07-23T14:31:18;3.35;;;3.10;;
7173;SDS011;3628;48.654;8.932;2022-07-23T14:33:44;3.58;;;3.25;;
7173;SDS011;3628;48.654;8.932;2022-07-23T14:36:09;5.57;;;3.25;;
7173;SDS011;3628;48.654;8.932;2022-07-23T14:38:35;3.75;;;3.40;;
7173;SDS011;3628;48.654;8.932;2022-07-23T14:41:00;4.00;;;3.47;;
7173;SDS011;3628;48.654;8.932;2022-07-23T14:43:26;3.35;;;3.15;;
7173;SDS011;3628;48.654;8.932;2022-07-23T14:45:52;3.67;;;3.38;;
7173;SDS011;3628;48.654;8.932;2022-07-23T14:48:17;3.63;;;3.17;;
7173;SDS011;3628;48.654;8.932;2022-07-23T14:50:43;3.63;;;3.28;;
7173;SDS011;3628;48.654;8.932;2022-07-23T14:53:08;4.35;;;3.58;;
7173;SDS011;3628;48.654;8.932;2022-07-23T14:55:34;3.35;;;3.15;;
7173;SDS011;3628;48.654;8.932;2022-07-23T14:58:00;3.38;;;3.08;;
7173;SDS011;3628;48.654;8.932;2022-07-23T15:00:25;3.95;;;3.45;;
7173;SDS011;3628;48.654;8.932;2022-07-23T15:02:52;3.50;;;3.25;;
7173;SDS011;3628;48.654;8.932;2022-07-23T15:05:18;4.13;;;3.60;;
7173;SDS011;3628;48.654;8.932;2022-07-23T15:07:44;3.67;;;3.38;;
7173;SDS011;3628;48.654;8.932;2022-07-23T15:10:10;3.75;;;3.40;;
7173;SDS011;3628;48.654;8.932;2022-07-23T15:12:36;3.10;;;2.90;;
7173;SDS011;3628;48.654;8.932;2022-07-23T15:15:02;3.50;;;3.17;;
7173;SDS011;3628;48.654;8.932;2022-07-23T15:17:29;6.63;;;3.70;;
7173;SDS011;3628;48.654;8.932;2022-07-23T15:19:54;3.90;;;3.00;;
7173;SDS011;3628;48.654;8.932;2022-07-23T15:22:20;3.38;;;3.08;;
7173;SDS011;3628;48.654;8.932;2022-07-23T15:24:46;4.20;;;3.08;;
7173;SDS011;3628;48.654;8.932;2022-07-23T15:27:11;4.55;;;3.13;;
7173;SDS011;3628;48.654;8.932;2022-07-23T15:29:37;4.65;;;3.47;;
7173;SDS011;3628;48.654;8.932;2022-07-23T15:32:03;3.63;;;3.33;;
7173;SDS011;3628;48.654;8.932;2022-07-23T15:34:28;5.65;;;2.78;;
7173;SDS011;3628;48.654;8.932;2022-07-23T15:36:54;4.00;;;2.92;;
7173;SDS011;3628;48.654;8.932;2022-07-23T15:39:20;4.15;;;3.22;;
7173;SDS011;3628;48.654;8.932;2022-07-23T15:41:46;4.03;;;3.50;;
7173;SDS011;3628;48.654;8.932;2022-07-23T15:44:11;3.35;;;3.05;;
7173;SDS011;3628;48.654;8.932;2022-07-23T15:46:37;3.95;;;3.55;;
7173;SDS011;3628;48.654;8.932;2022-07-23T15:49:03;5.07;;;3.30;;
7173;SDS011;3628;48.654;8.932;2022-07-23T15:51:28;3.70;;;3.40;;
7173;SDS011;3628;48.654;8.932;2022-07-23T15:53:54;4.43;;;3.30;;
7173;SDS011;3628;48.654;8.932;2022-07-23T15:56:20;7.78;;;3.45;;
7173;SDS011;3628;48.654;8.932;2022-07-23T15:58:46;4.22;;;3.55;;
7173;SDS011;3628;48.654;8.932;2022-07-23T16:01:11;4.10;;;3.42;;
7173;SDS011;3628;48.654;8.932;2022-07-23T16:03:37;6.90;;;3.42;;